sensor_id;sensor_type;location;lat;lon;timestamp;P1;durP1;ratioP1;P2;durP2;ratioP2
26824;SDS011;14402;48.178;11.566;2023-06-04T00:00:00;4.4;;;3.2;;
26824;SDS011;14402;48.178;11.566;2023-06-04T00:00:29;4.2;;;3.1;;
26824;SDS011;14402;48.178;11.566;2023-06-04T00:00:59;4.1;;;3.0;;
26824;SDS011;14402;48.178;11.566;2023-06-04T00:01:29;4.1;;;3.0;;
26824;SDS011;14402;48.178;11.566;2023-06-04T00:02:00;4.1;;;3.0;;
26824;SDS011;14402;48.178;11.566;2023-06-04T00:02:30;4.4;;;2.8;;
26824;SDS011;14402;48.178;11.566;2023-06-04T00:02:59;4.7;;;2.6;;
26824;SDS011;14402;48.178;11.566;2023-06-04T00:03:30;4.7;;;2.6;;
26824;SDS011;14402;48.178;11.566;2023-06-04T00:04:02;4.7;;;2.6;;
26824;SDS011;14402;48.178;11.566;2023-06-04T00:04:30;4.4;;;2.7;;
26824;SDS011;14402;48.178;11.566;2023-06-04T00:05:01;4.1;;;2.8;;
26824;SDS011;14402;48.178;11.566;2023-06-04T00:05:31;4.1;;;2.8;;
26824;SDS011;14402;48.178;11.566;2023-06-04T00:06:01;4.1;;;2.8;;
26824;SDS011;14402;48.178;11.566;2023-06-04T00:06:30;4.1;;;2.8;;
26824;SDS011;14402;48.178;11.566;2023-06-04T00:07:01;4.0;;;2.7;;
26824;SDS011;14402;48.178;11.566;2023-06-04T00:07:31;4.0;;;2.7;;
26824;SDS011;14402;48.178;11.566;2023-06-04T00:08:01;4.0;;;2.7;;
26824;SDS011;14402;48.178;11.566;2023-06-04T00:08:30;3.6;;;2.6;;
26824;SDS011;14402;48.178;11.566;2023-06-04T00:09:01;3.2;;;2.5;;
26824;SDS011;14402;48.178;11.566;2023-06-04T00:09:31;3.2;;;2.5;;
26824;SDS011;14402;48.178;11.566;2023-06-04T00:10:03;3.2;;;2.5;;
26824;SDS011;14402;48.178;11.566;2023-06-04T00:10:31;3.8;;;2.6;;
26824;SDS011;14402;48.178;11.566;2023-06-04T00:11:01;4.5;;;2.7;;
26824;SDS011;14402;48.178;11.566;2023-06-04T00:11:31;4.5;;;2.7;;
26824;SDS011;14402;48.178;11.566;2023-06-04T00:12:02;4.5;;;2.7;;
26824;SDS011;14402;48.178;11.566;2023-06-04T00:12:31;4.2;;;2.7;;
26824;SDS011;14402;48.178;11.566;2023-06-04T00:13:02;3.9;;;2.7;;
26824;SDS011;14402;48.178;11.566;2023-06-04T00:13:31;3.9;;;2.7;;
26824;SDS011;14402;48.178;11.566;2023-06-04T00:14:02;3.9;;;2.7;;
26824;SDS011;14402;48.178;11.566;2023-06-04T00:14:31;3.8;;;2.8;;
26824;SDS011;14402;48.178;11.566;2023-06-04T00:15:02;3.7;;;2.8;;
26824;SDS011;14402;48.178;11.566;2023-06-04T00:15:32;3.7;;;2.8;;
26824;SDS011;14402;48.178;11.566;2023-06-04T00:16:02;3.7;;;2.8;;
26824;SDS011;14402;48.178;11.566;2023-06-04T00:16:32;3.7;;;2.8;;
26824;SDS011;14402;48.178;11.566;2023-06-04T00:17:02;3.6;;;2.7;;
26824;SDS011;14402;48.178;11.566;2023-06-04T00:18:05;3.6;;;2.7;;
26824;SDS011;14402;48.178;11.566;2023-06-04T00:18:33;3.8;;;2.7;;
26824;SDS011;14402;48.178;11.566;2023-06-04T00:19:03;4.1;;;2.6;;
26824;SDS011;14402;48.178;11.566;2023-06-04T00:19:33;4.1;;;2.6;;
26824;SDS011;14402;48.178;11.566;2023-06-04T00:20:03;4.1;;;2.6;;
26824;SDS011;14402;48.178;11.566;2023-06-04T00:20:33;3.9;;;2.7;;
26824;SDS011;14402;48.178;11.566;2023-06-04T00:21:03;3.8;;;2.7;;
26824;SDS011;14402;48.178;11.566;2023-06-04T00:21:33;3.8;;;2.7;;
26824;SDS011;14402;48.178;11.566;2023-06-04T00:22:03;3.8;;;2.7;;
26824;SDS011;14402;48.178;11.566;2023-06-04T00:22:34;4.9;;;2.8;;
26824;SDS011;14402;48.178;11.566;2023-06-04T00:23:03;6.0;;;2.9;;
26824;SDS011;14402;48.178;11.566;2023-06-04T00:23:33;6.0;;;2.9;;
26824;SDS011;14402;48.178;11.566;2023-06-04T00:24:03;6.0;;;2.9;;
26824;SDS011;14402;48.178;11.566;2023-06-04T00:24:34;5.7;;;2.7;;
26824;SDS011;14402;48.178;11.566;2023-06-04T00:25:04;5.3;;;2.5;;
26824;SDS011;14402;48.178;11.566;2023-06-04T00:25:34;5.3;;;2.5;;
26824;SDS011;14402;48.178;11.566;2023-06-04T00:26:04;5.3;;;2.5;;
26824;SDS011;14402;48.178;11.566;2023-06-04T00:26:34;5.0;;;2.5;;
26824;SDS011;14402;48.178;11.566;2023-06-04T00:27:05;4.7;;;2.5;;
26824;SDS011;14402;48.178;11.566;2023-06-04T00:27:34;4.7;;;2.5;;
26824;SDS011;14402;48.178;11.566;2023-06-04T00:28:04;4.7;;;2.5;;
26824;SDS011;14402;48.178;11.566;2023-06-04T00:28:34;4.1;;;2.5;;
26824;SDS011;14402;48.178;11.566;2023-06-04T00:29:05;3.6;;;2.5;;
26824;SDS011;14402;48.178;11.566;2023-06-04T00:29:35;3.6;;;2.5;;
26824;SDS011;14402;48.178;11.566;2023-06-04T00:30:05;3.6;;;2.5;;
26824;SDS011;14402;48.178;11.566;2023-06-04T00:30:35;4.2;;;2.5;;
26824;SDS011;14402;48.178;11.566;2023-06-04T00:31:05;4.9;;;2.5;;
26824;SDS011;14402;48.178;11.566;2023-06-04T00:31:34;4.9;;;2.5;;
26824;SDS011;14402;48.178;11.566;2023-06-04T00:32:05;4.9;;;2.5;;
26824;SDS011;14402;48.178;11.566;2023-06-04T00:32:35;4.4;;;2.5;;
26824;SDS011;14402;48.178;11.566;2023-06-04T00:33:05;4.0;;;2.5;;
26824;SDS011;14402;48.178;11.566;2023-06-04T00:33:35;4.0;;;2.5;;
26824;SDS011;14402;48.178;11.566;2023-06-04T00:34:05;4.0;;;2.5;;
26824;SDS011;14402;48.178;11.566;2023-06-04T00:34:35;4.3;;;2.5;;
26824;SDS011;14402;48.178;11.566;2023-06-04T00:35:05;4.7;;;2.5;;
26824;SDS011;14402;48.178;11.566;2023-06-04T00:35:35;4.7;;;2.5;;
26824;SDS011;14402;48.178;11.566;2023-06-04T00:36:06;4.7;;;2.5;;
26824;SDS011;14402;48.178;11.566;2023-06-04T00:36:36;4.6;;;2.3;;
26824;SDS011;14402;48.178;11.566;2023-06-04T00:37:06;4.4;;;2.2;;
26824;SDS011;14402;48.178;11.566;2023-06-04T00:37:35;4.4;;;2.2;;
26824;SDS011;14402;48.178;11.566;2023-06-04T00:38:06;4.4;;;2.2;;
26824;SDS011;14402;48.178;11.566;2023-06-04T00:38:36;4.5;;;2.5;;
26824;SDS011;14402;48.178;11.566;2023-06-04T00:39:06;4.6;;;2.7;;
26824;SDS011;14402;48.178;11.566;2023-06-04T00:39:36;4.6;;;2.7;;
26824;SDS011;14402;48.178;11.566;2023-06-04T00:40:07;4.6;;;2.7;;
26824;SDS011;14402;48.178;11.566;2023-06-04T00:40:36;7.0;;;2.8;;
26824;SDS011;14402;48.178;11.566;2023-06-04T00:41:06;9.4;;;2.9;;
26824;SDS011;14402;48.178;11.566;2023-06-04T00:41:36;9.4;;;2.9;;
26824;SDS011;14402;48.178;11.566;2023-06-04T00:42:07;9.4;;;2.9;;
26824;SDS011;14402;48.178;11.566;2023-06-04T00:42:36;7.0;;;2.8;;
26824;SDS011;14402;48.178;11.566;2023-06-04T00:43:06;4.7;;;2.6;;
26824;SDS011;14402;48.178;11.566;2023-06-04T00:43:37;4.7;;;2.6;;
26824;SDS011;14402;48.178;11.566;2023-06-04T00:44:07;4.7;;;2.6;;
26824;SDS011;14402;48.178;11.566;2023-06-04T00:44:37;4.0;;;2.4;;
26824;SDS011;14402;48.178;11.566;2023-06-04T00:45:08;3.3;;;2.3;;
26824;SDS011;14402;48.178;11.566;2023-06-04T00:45:37;3.3;;;2.3;;
26824;SDS011;14402;48.178;11.566;2023-06-04T00:46:07;3.3;;;2.3;;
26824;SDS011;14402;48.178;11.566;2023-06-04T00:46:37;3.0;;;2.3;;
26824;SDS011;14402;48.178;11.566;2023-06-04T00:47:07;2.7;;;2.3;;
26824;SDS011;14402;48.178;11.566;2023-06-04T00:47:37;2.7;;;2.3;;
26824;SDS011;14402;48.178;11.566;2023-06-04T00:48:07;2.7;;;2.3;;
26824;SDS011;14402;48.178;11.566;2023-06-04T00:48:38;3.1;;;2.4;;
26824;SDS011;14402;48.178;11.566;2023-06-04T00:49:08;3.5;;;2.5;;
26824;SDS011;14402;48.178;11.566;2023-06-04T00:49:38;3.5;;;2.5;;
26824;SDS011;14402;48.178;11.566;2023-06-04T00:50:08;3.5;;;2.5;;
26824;SDS011;14402;48.178;11.566;2023-06-04T00:50:38;3.4;;;2.5;;
26824;SDS011;14402;48.178;11.566;2023-06-04T00:51:08;3.3;;;2.4;;
26824;SDS011;14402;48.178;11.566;2023-06-04T00:51:39;3.3;;;2.4;;
26824;SDS011;14402;48.178;11.566;2023-06-04T00:52:08;3.3;;;2.4;;
26824;SDS011;14402;48.178;11.566;2023-06-04T00:52:38;3.5;;;2.3;;
26824;SDS011;14402;48.178;11.566;2023-06-04T00:53:09;3.8;;;2.3;;
26824;SDS011;14402;48.178;11.566;2023-06-04T00:53:39;3.8;;;2.3;;
26824;SDS011;14402;48.178;11.566;2023-06-04T00:54:09;3.8;;;2.3;;
26824;SDS011;14402;48.178;11.566;2023-06-04T00:54:38;4.0;;;2.4;;
26824;SDS011;14402;48.178;11.566;2023-06-04T00:55:09;4.2;;;2.5;;
26824;SDS011;14402;48.178;11.566;2023-06-04T00:55:38;4.2;;;2.5;;
26824;SDS011;14402;48.178;11.566;2023-06-04T00:56:09;4.2;;;2.5;;
26824;SDS011;14402;48.178;11.566;2023-06-04T00:56:39;3.7;;;2.5;;
26824;SDS011;14402;48.178;11.566;2023-06-04T00:57:09;3.2;;;2.4;;
26824;SDS011;14402;48.178;11.566;2023-06-04T00:57:39;3.2;;;2.4;;
26824;SDS011;14402;48.178;11.566;2023-06-04T00:58:09;3.2;;;2.4;;
26824;SDS011;14402;48.178;11.566;2023-06-04T00:58:39;3.3;;;2.3;;
26824;SDS011;14402;48.178;11.566;2023-06-04T00:59:09;3.5;;;2.2;;
26824;SDS011;14402;48.178;11.566;2023-06-04T00:59:39;3.5;;;2.2;;
26824;SDS011;14402;48.178;11.566;2023-06-04T01:00:10;3.5;;;2.2;;
26824;SDS011;14402;48.178;11.566;2023-06-04T01:00:39;4.0;;;2.3;;
26824;SDS011;14402;48.178;11.566;2023-06-04T01:01:10;4.5;;;2.4;;
26824;SDS011;14402;48.178;11.566;2023-06-04T01:01:42;4.5;;;2.4;;
26824;SDS011;14402;48.178;11.566;2023-06-04T01:02:11;4.5;;;2.4;;
26824;SDS011;14402;48.178;11.566;2023-06-04T01:02:40;5.8;;;2.6;;
26824;SDS011;14402;48.178;11.566;2023-06-04T01:03:10;7.1;;;2.8;;
26824;SDS011;14402;48.178;11.566;2023-06-04T01:03:41;7.1;;;2.8;;
26824;SDS011;14402;48.178;11.566;2023-06-04T01:04:12;7.1;;;2.8;;
26824;SDS011;14402;48.178;11.566;2023-06-04T01:04:42;5.8;;;2.5;;
26824;SDS011;14402;48.178;11.566;2023-06-04T01:05:11;4.6;;;2.3;;
26824;SDS011;14402;48.178;11.566;2023-06-04T01:05:40;4.6;;;2.3;;
26824;SDS011;14402;48.178;11.566;2023-06-04T01:06:12;4.6;;;2.3;;
26824;SDS011;14402;48.178;11.566;2023-06-04T01:06:43;5.0;;;2.4;;
26824;SDS011;14402;48.178;11.566;2023-06-04T01:07:10;5.4;;;2.6;;
26824;SDS011;14402;48.178;11.566;2023-06-04T01:07:40;5.4;;;2.6;;
26824;SDS011;14402;48.178;11.566;2023-06-04T01:08:10;5.4;;;2.6;;
26824;SDS011;14402;48.178;11.566;2023-06-04T01:08:40;4.9;;;2.5;;
26824;SDS011;14402;48.178;11.566;2023-06-04T01:09:11;4.4;;;2.4;;
26824;SDS011;14402;48.178;11.566;2023-06-04T01:09:41;4.4;;;2.4;;
26824;SDS011;14402;48.178;11.566;2023-06-04T01:10:11;4.4;;;2.4;;
26824;SDS011;14402;48.178;11.566;2023-06-04T01:10:49;4.8;;;2.7;;
26824;SDS011;14402;48.178;11.566;2023-06-04T01:11:11;5.2;;;2.9;;
26824;SDS011;14402;48.178;11.566;2023-06-04T01:11:41;5.2;;;2.9;;
26824;SDS011;14402;48.178;11.566;2023-06-04T01:12:11;5.2;;;2.9;;
26824;SDS011;14402;48.178;11.566;2023-06-04T01:12:42;4.2;;;2.7;;
26824;SDS011;14402;48.178;11.566;2023-06-04T01:13:11;3.3;;;2.5;;
26824;SDS011;14402;48.178;11.566;2023-06-04T01:13:41;3.3;;;2.5;;
26824;SDS011;14402;48.178;11.566;2023-06-04T01:14:11;3.3;;;2.5;;
26824;SDS011;14402;48.178;11.566;2023-06-04T01:14:41;4.9;;;2.6;;
26824;SDS011;14402;48.178;11.566;2023-06-04T01:15:11;6.6;;;2.7;;
26824;SDS011;14402;48.178;11.566;2023-06-04T01:15:41;6.6;;;2.7;;
26824;SDS011;14402;48.178;11.566;2023-06-04T01:16:11;6.6;;;2.7;;
26824;SDS011;14402;48.178;11.566;2023-06-04T01:16:42;5.4;;;2.6;;
26824;SDS011;14402;48.178;11.566;2023-06-04T01:17:15;4.3;;;2.5;;
26824;SDS011;14402;48.178;11.566;2023-06-04T01:17:42;4.3;;;2.5;;
26824;SDS011;14402;48.178;11.566;2023-06-04T01:18:12;4.3;;;2.5;;
26824;SDS011;14402;48.178;11.566;2023-06-04T01:18:42;3.6;;;2.4;;
26824;SDS011;14402;48.178;11.566;2023-06-04T01:19:17;2.8;;;2.3;;
26824;SDS011;14402;48.178;11.566;2023-06-04T01:19:51;2.8;;;2.3;;
26824;SDS011;14402;48.178;11.566;2023-06-04T01:20:16;2.8;;;2.3;;
26824;SDS011;14402;48.178;11.566;2023-06-04T01:20:43;3.0;;;2.3;;
26824;SDS011;14402;48.178;11.566;2023-06-04T01:21:12;3.3;;;2.4;;
26824;SDS011;14402;48.178;11.566;2023-06-04T01:21:42;3.3;;;2.4;;
26824;SDS011;14402;48.178;11.566;2023-06-04T01:22:17;3.3;;;2.4;;
26824;SDS011;14402;48.178;11.566;2023-06-04T01:22:43;4.2;;;2.6;;
26824;SDS011;14402;48.178;11.566;2023-06-04T01:23:19;5.0;;;2.7;;
26824;SDS011;14402;48.178;11.566;2023-06-04T01:23:45;5.0;;;2.7;;
26824;SDS011;14402;48.178;11.566;2023-06-04T01:24:12;5.0;;;2.7;;
26824;SDS011;14402;48.178;11.566;2023-06-04T01:24:42;4.4;;;2.6;;
26824;SDS011;14402;48.178;11.566;2023-06-04T01:25:14;3.8;;;2.4;;
26824;SDS011;14402;48.178;11.566;2023-06-04T01:25:43;3.8;;;2.4;;
26824;SDS011;14402;48.178;11.566;2023-06-04T01:26:13;3.8;;;2.4;;
26824;SDS011;14402;48.178;11.566;2023-06-04T01:26:43;4.0;;;2.4;;
26824;SDS011;14402;48.178;11.566;2023-06-04T01:27:13;4.2;;;2.4;;
26824;SDS011;14402;48.178;11.566;2023-06-04T01:27:43;4.2;;;2.4;;
26824;SDS011;14402;48.178;11.566;2023-06-04T01:28:13;4.2;;;2.4;;
26824;SDS011;14402;48.178;11.566;2023-06-04T01:28:43;3.7;;;2.3;;
26824;SDS011;14402;48.178;11.566;2023-06-04T01:29:13;3.2;;;2.2;;
26824;SDS011;14402;48.178;11.566;2023-06-04T01:29:43;3.2;;;2.2;;
26824;SDS011;14402;48.178;11.566;2023-06-04T01:30:13;3.2;;;2.2;;
26824;SDS011;14402;48.178;11.566;2023-06-04T01:30:44;3.6;;;2.3;;
26824;SDS011;14402;48.178;11.566;2023-06-04T01:31:13;3.9;;;2.4;;
26824;SDS011;14402;48.178;11.566;2023-06-04T01:31:43;3.9;;;2.4;;
26824;SDS011;14402;48.178;11.566;2023-06-04T01:32:13;3.9;;;2.4;;
26824;SDS011;14402;48.178;11.566;2023-06-04T01:32:44;4.2;;;2.4;;
26824;SDS011;14402;48.178;11.566;2023-06-04T01:33:14;4.5;;;2.4;;
26824;SDS011;14402;48.178;11.566;2023-06-04T01:33:43;4.5;;;2.4;;
26824;SDS011;14402;48.178;11.566;2023-06-04T01:34:14;4.5;;;2.4;;
26824;SDS011;14402;48.178;11.566;2023-06-04T01:34:44;4.3;;;2.5;;
26824;SDS011;14402;48.178;11.566;2023-06-04T01:35:14;4.2;;;2.6;;
26824;SDS011;14402;48.178;11.566;2023-06-04T01:35:44;4.2;;;2.6;;
26824;SDS011;14402;48.178;11.566;2023-06-04T01:36:14;4.2;;;2.6;;
26824;SDS011;14402;48.178;11.566;2023-06-04T01:36:44;3.7;;;2.4;;
26824;SDS011;14402;48.178;11.566;2023-06-04T01:37:14;3.2;;;2.2;;
26824;SDS011;14402;48.178;11.566;2023-06-04T01:37:44;3.2;;;2.2;;
26824;SDS011;14402;48.178;11.566;2023-06-04T01:38:14;3.2;;;2.2;;
26824;SDS011;14402;48.178;11.566;2023-06-04T01:38:44;3.9;;;2.4;;
26824;SDS011;14402;48.178;11.566;2023-06-04T01:39:14;4.6;;;2.6;;
26824;SDS011;14402;48.178;11.566;2023-06-04T01:39:44;4.6;;;2.6;;
26824;SDS011;14402;48.178;11.566;2023-06-04T01:40:14;4.6;;;2.6;;
26824;SDS011;14402;48.178;11.566;2023-06-04T01:40:45;4.3;;;2.6;;
26824;SDS011;14402;48.178;11.566;2023-06-04T01:41:14;4.1;;;2.6;;
26824;SDS011;14402;48.178;11.566;2023-06-04T01:41:44;4.1;;;2.6;;
26824;SDS011;14402;48.178;11.566;2023-06-04T01:42:15;4.1;;;2.6;;
26824;SDS011;14402;48.178;11.566;2023-06-04T01:42:45;4.1;;;2.5;;
26824;SDS011;14402;48.178;11.566;2023-06-04T01:43:15;4.0;;;2.4;;
26824;SDS011;14402;48.178;11.566;2023-06-04T01:43:45;4.0;;;2.4;;
26824;SDS011;14402;48.178;11.566;2023-06-04T01:44:15;4.0;;;2.4;;
26824;SDS011;14402;48.178;11.566;2023-06-04T01:44:45;4.2;;;2.5;;
26824;SDS011;14402;48.178;11.566;2023-06-04T01:45:15;4.3;;;2.6;;
26824;SDS011;14402;48.178;11.566;2023-06-04T01:45:45;4.3;;;2.6;;
26824;SDS011;14402;48.178;11.566;2023-06-04T01:46:15;4.3;;;2.6;;
26824;SDS011;14402;48.178;11.566;2023-06-04T01:46:45;3.6;;;2.4;;
26824;SDS011;14402;48.178;11.566;2023-06-04T01:47:15;2.9;;;2.3;;
26824;SDS011;14402;48.178;11.566;2023-06-04T01:47:45;2.9;;;2.3;;
26824;SDS011;14402;48.178;11.566;2023-06-04T01:48:15;2.9;;;2.3;;
26824;SDS011;14402;48.178;11.566;2023-06-04T01:48:45;2.8;;;2.2;;
26824;SDS011;14402;48.178;11.566;2023-06-04T01:49:15;2.7;;;2.1;;
26824;SDS011;14402;48.178;11.566;2023-06-04T01:49:45;2.7;;;2.1;;
26824;SDS011;14402;48.178;11.566;2023-06-04T01:50:16;2.7;;;2.1;;
26824;SDS011;14402;48.178;11.566;2023-06-04T01:50:46;2.7;;;2.2;;
26824;SDS011;14402;48.178;11.566;2023-06-04T01:51:16;2.7;;;2.2;;
26824;SDS011;14402;48.178;11.566;2023-06-04T01:51:46;2.7;;;2.2;;
26824;SDS011;14402;48.178;11.566;2023-06-04T01:52:16;2.7;;;2.2;;
26824;SDS011;14402;48.178;11.566;2023-06-04T01:52:46;3.4;;;2.4;;
26824;SDS011;14402;48.178;11.566;2023-06-04T01:53:16;4.1;;;2.6;;
26824;SDS011;14402;48.178;11.566;2023-06-04T01:53:46;4.1;;;2.6;;
26824;SDS011;14402;48.178;11.566;2023-06-04T01:54:16;4.1;;;2.6;;
26824;SDS011;14402;48.178;11.566;2023-06-04T01:54:46;3.9;;;2.3;;
26824;SDS011;14402;48.178;11.566;2023-06-04T01:55:16;3.7;;;2.1;;
26824;SDS011;14402;48.178;11.566;2023-06-04T01:55:46;3.7;;;2.1;;
26824;SDS011;14402;48.178;11.566;2023-06-04T01:56:16;3.7;;;2.1;;
26824;SDS011;14402;48.178;11.566;2023-06-04T01:56:46;3.8;;;2.1;;
26824;SDS011;14402;48.178;11.566;2023-06-04T01:57:16;3.8;;;2.1;;
26824;SDS011;14402;48.178;11.566;2023-06-04T01:57:46;3.8;;;2.1;;
26824;SDS011;14402;48.178;11.566;2023-06-04T01:58:16;3.8;;;2.1;;
26824;SDS011;14402;48.178;11.566;2023-06-04T01:58:47;5.4;;;2.2;;
26824;SDS011;14402;48.178;11.566;2023-06-04T01:59:17;7.0;;;2.3;;
26824;SDS011;14402;48.178;11.566;2023-06-04T01:59:47;7.0;;;2.3;;
26824;SDS011;14402;48.178;11.566;2023-06-04T02:00:17;7.0;;;2.3;;
26824;SDS011;14402;48.178;11.566;2023-06-04T02:00:47;5.8;;;2.2;;
26824;SDS011;14402;48.178;11.566;2023-06-04T02:01:17;4.6;;;2.1;;
26824;SDS011;14402;48.178;11.566;2023-06-04T02:01:47;4.6;;;2.1;;
26824;SDS011;14402;48.178;11.566;2023-06-04T02:02:17;4.6;;;2.1;;
26824;SDS011;14402;48.178;11.566;2023-06-04T02:02:47;3.8;;;2.2;;
26824;SDS011;14402;48.178;11.566;2023-06-04T02:03:17;2.9;;;2.2;;
26824;SDS011;14402;48.178;11.566;2023-06-04T02:03:47;2.9;;;2.2;;
26824;SDS011;14402;48.178;11.566;2023-06-04T02:04:17;2.9;;;2.2;;
26824;SDS011;14402;48.178;11.566;2023-06-04T02:04:47;3.5;;;2.2;;
26824;SDS011;14402;48.178;11.566;2023-06-04T02:05:17;4.1;;;2.3;;
26824;SDS011;14402;48.178;11.566;2023-06-04T02:05:47;4.1;;;2.3;;
26824;SDS011;14402;48.178;11.566;2023-06-04T02:06:17;4.1;;;2.3;;
26824;SDS011;14402;48.178;11.566;2023-06-04T02:06:47;4.1;;;2.3;;
26824;SDS011;14402;48.178;11.566;2023-06-04T02:07:18;4.0;;;2.3;;
26824;SDS011;14402;48.178;11.566;2023-06-04T02:07:48;4.0;;;2.3;;
26824;SDS011;14402;48.178;11.566;2023-06-04T02:08:18;4.0;;;2.3;;
26824;SDS011;14402;48.178;11.566;2023-06-04T02:08:48;3.8;;;2.2;;
26824;SDS011;14402;48.178;11.566;2023-06-04T02:09:18;3.5;;;2.0;;
26824;SDS011;14402;48.178;11.566;2023-06-04T02:09:48;3.5;;;2.0;;
26824;SDS011;14402;48.178;11.566;2023-06-04T02:10:18;3.5;;;2.0;;
26824;SDS011;14402;48.178;11.566;2023-06-04T02:10:48;4.1;;;2.2;;
26824;SDS011;14402;48.178;11.566;2023-06-04T02:11:18;4.7;;;2.3;;
26824;SDS011;14402;48.178;11.566;2023-06-04T02:11:48;4.7;;;2.3;;
26824;SDS011;14402;48.178;11.566;2023-06-04T02:12:18;4.7;;;2.3;;
26824;SDS011;14402;48.178;11.566;2023-06-04T02:12:56;4.2;;;2.2;;
26824;SDS011;14402;48.178;11.566;2023-06-04T02:13:18;3.8;;;2.0;;
26824;SDS011;14402;48.178;11.566;2023-06-04T02:13:48;3.8;;;2.0;;
26824;SDS011;14402;48.178;11.566;2023-06-04T02:14:18;3.8;;;2.0;;
26824;SDS011;14402;48.178;11.566;2023-06-04T02:14:48;3.7;;;2.0;;
26824;SDS011;14402;48.178;11.566;2023-06-04T02:15:18;3.5;;;2.1;;
26824;SDS011;14402;48.178;11.566;2023-06-04T02:15:48;3.5;;;2.1;;
26824;SDS011;14402;48.178;11.566;2023-06-04T02:16:19;3.5;;;2.1;;
26824;SDS011;14402;48.178;11.566;2023-06-04T02:16:49;4.4;;;2.3;;
26824;SDS011;14402;48.178;11.566;2023-06-04T02:17:20;5.3;;;2.5;;
26824;SDS011;14402;48.178;11.566;2023-06-04T02:17:49;5.3;;;2.5;;
26824;SDS011;14402;48.178;11.566;2023-06-04T02:18:19;5.3;;;2.5;;
26824;SDS011;14402;48.178;11.566;2023-06-04T02:18:49;4.2;;;2.2;;
26824;SDS011;14402;48.178;11.566;2023-06-04T02:19:19;3.0;;;2.0;;
26824;SDS011;14402;48.178;11.566;2023-06-04T02:19:49;3.0;;;2.0;;
26824;SDS011;14402;48.178;11.566;2023-06-04T02:20:19;3.0;;;2.0;;
26824;SDS011;14402;48.178;11.566;2023-06-04T02:20:49;3.5;;;2.2;;
26824;SDS011;14402;48.178;11.566;2023-06-04T02:21:19;4.1;;;2.4;;
26824;SDS011;14402;48.178;11.566;2023-06-04T02:21:49;4.1;;;2.4;;
26824;SDS011;14402;48.178;11.566;2023-06-04T02:22:19;4.1;;;2.4;;
26824;SDS011;14402;48.178;11.566;2023-06-04T02:22:49;3.4;;;2.2;;
26824;SDS011;14402;48.178;11.566;2023-06-04T02:23:19;2.8;;;2.0;;
26824;SDS011;14402;48.178;11.566;2023-06-04T02:23:49;2.8;;;2.0;;
26824;SDS011;14402;48.178;11.566;2023-06-04T02:24:20;2.8;;;2.0;;
26824;SDS011;14402;48.178;11.566;2023-06-04T02:24:50;2.8;;;2.2;;
26824;SDS011;14402;48.178;11.566;2023-06-04T02:25:20;2.8;;;2.3;;
26824;SDS011;14402;48.178;11.566;2023-06-04T02:25:50;2.8;;;2.3;;
26824;SDS011;14402;48.178;11.566;2023-06-04T02:26:20;2.8;;;2.3;;
26824;SDS011;14402;48.178;11.566;2023-06-04T02:26:50;3.3;;;2.3;;
26824;SDS011;14402;48.178;11.566;2023-06-04T02:27:20;3.9;;;2.4;;
26824;SDS011;14402;48.178;11.566;2023-06-04T02:27:50;3.9;;;2.4;;
26824;SDS011;14402;48.178;11.566;2023-06-04T02:28:20;3.9;;;2.4;;
26824;SDS011;14402;48.178;11.566;2023-06-04T02:28:50;3.4;;;2.3;;
26824;SDS011;14402;48.178;11.566;2023-06-04T02:29:20;2.9;;;2.3;;
26824;SDS011;14402;48.178;11.566;2023-06-04T02:29:50;2.9;;;2.3;;
26824;SDS011;14402;48.178;11.566;2023-06-04T02:30:20;2.9;;;2.3;;
26824;SDS011;14402;48.178;11.566;2023-06-04T02:30:50;3.0;;;2.4;;
26824;SDS011;14402;48.178;11.566;2023-06-04T02:31:20;3.1;;;2.5;;
26824;SDS011;14402;48.178;11.566;2023-06-04T02:31:50;3.1;;;2.5;;
26824;SDS011;14402;48.178;11.566;2023-06-04T02:32:21;3.1;;;2.5;;
26824;SDS011;14402;48.178;11.566;2023-06-04T02:32:51;3.2;;;2.5;;
26824;SDS011;14402;48.178;11.566;2023-06-04T02:33:21;3.2;;;2.4;;
26824;SDS011;14402;48.178;11.566;2023-06-04T02:33:51;3.2;;;2.4;;
26824;SDS011;14402;48.178;11.566;2023-06-04T02:34:21;3.2;;;2.4;;
26824;SDS011;14402;48.178;11.566;2023-06-04T02:34:51;4.1;;;2.4;;
26824;SDS011;14402;48.178;11.566;2023-06-04T02:35:21;4.9;;;2.4;;
26824;SDS011;14402;48.178;11.566;2023-06-04T02:35:51;4.9;;;2.4;;
26824;SDS011;14402;48.178;11.566;2023-06-04T02:36:21;4.9;;;2.4;;
26824;SDS011;14402;48.178;11.566;2023-06-04T02:36:51;4.0;;;2.4;;
26824;SDS011;14402;48.178;11.566;2023-06-04T02:37:21;3.0;;;2.4;;
26824;SDS011;14402;48.178;11.566;2023-06-04T02:37:51;3.0;;;2.4;;
26824;SDS011;14402;48.178;11.566;2023-06-04T02:38:21;3.0;;;2.4;;
26824;SDS011;14402;48.178;11.566;2023-06-04T02:38:51;4.8;;;2.5;;
26824;SDS011;14402;48.178;11.566;2023-06-04T02:39:21;6.6;;;2.5;;
26824;SDS011;14402;48.178;11.566;2023-06-04T02:39:51;6.6;;;2.5;;
26824;SDS011;14402;48.178;11.566;2023-06-04T02:40:21;6.6;;;2.5;;
26824;SDS011;14402;48.178;11.566;2023-06-04T02:40:51;5.1;;;2.5;;
26824;SDS011;14402;48.178;11.566;2023-06-04T02:41:21;3.6;;;2.6;;
26824;SDS011;14402;48.178;11.566;2023-06-04T02:41:51;3.6;;;2.6;;
26824;SDS011;14402;48.178;11.566;2023-06-04T02:42:21;3.6;;;2.6;;
26824;SDS011;14402;48.178;11.566;2023-06-04T02:42:52;3.8;;;2.7;;
26824;SDS011;14402;48.178;11.566;2023-06-04T02:43:22;4.0;;;2.8;;
26824;SDS011;14402;48.178;11.566;2023-06-04T02:43:52;4.0;;;2.8;;
26824;SDS011;14402;48.178;11.566;2023-06-04T02:44:22;4.0;;;2.8;;
26824;SDS011;14402;48.178;11.566;2023-06-04T02:44:52;4.6;;;2.9;;
26824;SDS011;14402;48.178;11.566;2023-06-04T02:45:22;5.2;;;3.1;;
26824;SDS011;14402;48.178;11.566;2023-06-04T02:45:52;5.2;;;3.1;;
26824;SDS011;14402;48.178;11.566;2023-06-04T02:46:22;5.2;;;3.1;;
26824;SDS011;14402;48.178;11.566;2023-06-04T02:46:52;4.8;;;3.0;;
26824;SDS011;14402;48.178;11.566;2023-06-04T02:47:22;4.5;;;3.0;;
26824;SDS011;14402;48.178;11.566;2023-06-04T02:47:52;4.5;;;3.0;;
26824;SDS011;14402;48.178;11.566;2023-06-04T02:48:22;4.5;;;3.0;;
26824;SDS011;14402;48.178;11.566;2023-06-04T02:48:52;4.1;;;3.0;;
26824;SDS011;14402;48.178;11.566;2023-06-04T02:49:22;3.7;;;2.9;;
26824;SDS011;14402;48.178;11.566;2023-06-04T02:49:52;3.7;;;2.9;;
26824;SDS011;14402;48.178;11.566;2023-06-04T02:50:22;3.7;;;2.9;;
26824;SDS011;14402;48.178;11.566;2023-06-04T02:50:52;4.4;;;3.0;;
26824;SDS011;14402;48.178;11.566;2023-06-04T02:51:23;5.1;;;3.1;;
26824;SDS011;14402;48.178;11.566;2023-06-04T02:51:53;5.1;;;3.1;;
26824;SDS011;14402;48.178;11.566;2023-06-04T02:52:23;5.1;;;3.1;;
26824;SDS011;14402;48.178;11.566;2023-06-04T02:52:53;4.2;;;2.8;;
26824;SDS011;14402;48.178;11.566;2023-06-04T02:53:23;3.3;;;2.6;;
26824;SDS011;14402;48.178;11.566;2023-06-04T02:53:53;3.3;;;2.6;;
26824;SDS011;14402;48.178;11.566;2023-06-04T02:54:23;3.3;;;2.6;;
26824;SDS011;14402;48.178;11.566;2023-06-04T02:54:53;3.3;;;2.7;;
26824;SDS011;14402;48.178;11.566;2023-06-04T02:55:23;3.3;;;2.8;;
26824;SDS011;14402;48.178;11.566;2023-06-04T02:55:53;3.3;;;2.8;;
26824;SDS011;14402;48.178;11.566;2023-06-04T02:56:23;3.3;;;2.8;;
26824;SDS011;14402;48.178;11.566;2023-06-04T02:56:53;4.1;;;2.8;;
26824;SDS011;14402;48.178;11.566;2023-06-04T02:57:23;4.8;;;2.8;;
26824;SDS011;14402;48.178;11.566;2023-06-04T02:57:53;4.8;;;2.8;;
26824;SDS011;14402;48.178;11.566;2023-06-04T02:58:24;4.8;;;2.8;;
26824;SDS011;14402;48.178;11.566;2023-06-04T02:58:54;4.2;;;2.8;;
26824;SDS011;14402;48.178;11.566;2023-06-04T02:59:23;3.7;;;2.8;;
26824;SDS011;14402;48.178;11.566;2023-06-04T02:59:53;3.7;;;2.8;;
26824;SDS011;14402;48.178;11.566;2023-06-04T03:00:24;3.7;;;2.8;;
26824;SDS011;14402;48.178;11.566;2023-06-04T03:00:54;4.2;;;2.9;;
26824;SDS011;14402;48.178;11.566;2023-06-04T03:01:24;4.7;;;3.0;;
26824;SDS011;14402;48.178;11.566;2023-06-04T03:01:54;4.7;;;3.0;;
26824;SDS011;14402;48.178;11.566;2023-06-04T03:02:24;4.7;;;3.0;;
26824;SDS011;14402;48.178;11.566;2023-06-04T03:02:54;4.6;;;3.0;;
26824;SDS011;14402;48.178;11.566;2023-06-04T03:03:24;4.6;;;3.1;;
26824;SDS011;14402;48.178;11.566;2023-06-04T03:03:54;4.6;;;3.1;;